sensor_id;sensor_type;location;lat;lon;timestamp;P1;durP1;ratioP1;P2;durP2;ratioP2
5491;SDS011;2768;53.540;10.224;2024-03-06T00:04:20;10.53;;;8.30;;
5491;SDS011;2768;53.540;10.224;2024-03-06T00:10:13;12.00;;;8.50;;
5491;SDS011;2768;53.540;10.224;2024-03-06T00:16:08;9.23;;;8.20;;
5491;SDS011;2768;53.540;10.224;2024-03-06T00:22:02;9.00;;;8.10;;
5491;SDS011;2768;53.540;10.224;2024-03-06T00:27:55;11.00;;;8.30;;
5491;SDS011;2768;53.540;10.224;2024-03-06T00:33:50;8.70;;;7.80;;
5491;SDS011;2768;53.540;10.224;2024-03-06T00:39:43;9.20;;;7.57;;
5491;SDS011;2768;53.540;10.224;2024-03-06T00:45:37;8.40;;;7.10;;
5491;SDS011;2768;53.540;10.224;2024-03-06T00:51:31;9.20;;;7.57;;
5491;SDS011;2768;53.540;10.224;2024-03-06T00:57:39;10.17;;;7.37;;
5491;SDS011;2768;53.540;10.224;2024-03-06T01:03:32;8.13;;;7.33;;
5491;SDS011;2768;53.540;10.224;2024-03-06T01:09:27;8.60;;;7.00;;
5491;SDS011;2768;53.540;10.224;2024-03-06T01:15:20;9.20;;;7.07;;
5491;SDS011;2768;53.540;10.224;2024-03-06T01:21:13;8.53;;;7.13;;
5491;SDS011;2768;53.540;10.224;2024-03-06T01:27:08;12.47;;;7.60;;
5491;SDS011;2768;53.540;10.224;2024-03-06T01:33:02;7.87;;;6.97;;
5491;SDS011;2768;53.540;10.224;2024-03-06T01:38:56;9.93;;;7.03;;
5491;SDS011;2768;53.540;10.224;2024-03-06T01:44:51;9.50;;;7.97;;
5491;SDS011;2768;53.540;10.224;2024-03-06T01:50:44;7.47;;;6.50;;
5491;SDS011;2768;53.540;10.224;2024-03-06T01:56:39;8.30;;;7.50;;
5491;SDS011;2768;53.540;10.224;2024-03-06T02:02:38;7.40;;;6.47;;
5491;SDS011;2768;53.540;10.224;2024-03-06T02:08:32;8.50;;;7.57;;
5491;SDS011;2768;53.540;10.224;2024-03-06T02:14:26;7.47;;;6.77;;
5491;SDS011;2768;53.540;10.224;2024-03-06T02:20:22;7.97;;;6.57;;
5491;SDS011;2768;53.540;10.224;2024-03-06T02:26:16;8.77;;;7.00;;
5491;SDS011;2768;53.540;10.224;2024-03-06T02:32:11;7.80;;;6.23;;
5491;SDS011;2768;53.540;10.224;2024-03-06T02:38:07;7.17;;;6.47;;
5491;SDS011;2768;53.540;10.224;2024-03-06T02:44:01;8.60;;;6.00;;
5491;SDS011;2768;53.540;10.224;2024-03-06T02:50:00;9.27;;;7.00;;
5491;SDS011;2768;53.540;10.224;2024-03-06T02:55:55;6.63;;;5.93;;
5491;SDS011;2768;53.540;10.224;2024-03-06T03:01:48;6.43;;;5.83;;
5491;SDS011;2768;53.540;10.224;2024-03-06T03:07:41;9.43;;;5.73;;
5491;SDS011;2768;53.540;10.224;2024-03-06T03:13:36;10.43;;;6.37;;
5491;SDS011;2768;53.540;10.224;2024-03-06T03:19:30;6.50;;;5.30;;
5491;SDS011;2768;53.540;10.224;2024-03-06T03:25:23;8.63;;;5.00;;
5491;SDS011;2768;53.540;10.224;2024-03-06T03:31:18;7.40;;;5.40;;
5491;SDS011;2768;53.540;10.224;2024-03-06T03:37:13;5.83;;;5.33;;
5491;SDS011;2768;53.540;10.224;2024-03-06T03:43:06;5.77;;;5.17;;
5491;SDS011;2768;53.540;10.224;2024-03-06T03:49:01;6.20;;;4.90;;
5491;SDS011;2768;53.540;10.224;2024-03-06T03:54:55;5.50;;;5.00;;
5491;SDS011;2768;53.540;10.224;2024-03-06T04:00:48;5.40;;;4.90;;
5491;SDS011;2768;53.540;10.224;2024-03-06T04:06:45;5.50;;;5.10;;
5491;SDS011;2768;53.540;10.224;2024-03-06T04:12:38;5.73;;;5.20;;
5491;SDS011;2768;53.540;10.224;2024-03-06T04:18:32;5.27;;;4.77;;
5491;SDS011;2768;53.540;10.224;2024-03-06T04:24:27;5.57;;;5.00;;
5491;SDS011;2768;53.540;10.224;2024-03-06T04:30:20;5.73;;;4.73;;
5491;SDS011;2768;53.540;10.224;2024-03-06T04:36:14;6.07;;;5.20;;
5491;SDS011;2768;53.540;10.224;2024-03-06T04:42:08;5.97;;;5.00;;
5491;SDS011;2768;53.540;10.224;2024-03-06T04:48:02;5.10;;;4.40;;
5491;SDS011;2768;53.540;10.224;2024-03-06T04:53:55;5.50;;;5.00;;
5491;SDS011;2768;53.540;10.224;2024-03-06T04:59:49;5.53;;;4.90;;
5491;SDS011;2768;53.540;10.224;2024-03-06T05:05:43;5.20;;;4.63;;
5491;SDS011;2768;53.540;10.224;2024-03-06T05:11:54;5.77;;;5.10;;
5491;SDS011;2768;53.540;10.224;2024-03-06T05:18:06;7.13;;;4.93;;
5491;SDS011;2768;53.540;10.224;2024-03-06T05:24:17;9.90;;;5.00;;
5491;SDS011;2768;53.540;10.224;2024-03-06T05:30:28;4.90;;;4.50;;
5491;SDS011;2768;53.540;10.224;2024-03-06T05:36:41;6.47;;;5.77;;
5491;SDS011;2768;53.540;10.224;2024-03-06T05:42:52;6.10;;;5.50;;
5491;SDS011;2768;53.540;10.224;2024-03-06T05:49:03;7.60;;;5.80;;
5491;SDS011;2768;53.540;10.224;2024-03-06T05:55:15;6.13;;;4.87;;
5491;SDS011;2768;53.540;10.224;2024-03-06T06:01:26;5.43;;;4.93;;
5491;SDS011;2768;53.540;10.224;2024-03-06T06:07:20;6.80;;;5.10;;
5491;SDS011;2768;53.540;10.224;2024-03-06T06:13:14;5.73;;;5.23;;
5491;SDS011;2768;53.540;10.224;2024-03-06T06:19:07;8.77;;;5.37;;
5491;SDS011;2768;53.540;10.224;2024-03-06T06:25:01;5.17;;;4.67;;
5491;SDS011;2768;53.540;10.224;2024-03-06T06:30:56;6.03;;;5.40;;
5491;SDS011;2768;53.540;10.224;2024-03-06T06:36:49;4.90;;;4.50;;
5491;SDS011;2768;53.540;10.224;2024-03-06T06:42:44;6.13;;;5.20;;
5491;SDS011;2768;53.540;10.224;2024-03-06T06:48:43;5.10;;;4.70;;
5491;SDS011;2768;53.540;10.224;2024-03-06T06:54:36;6.27;;;5.67;;
5491;SDS011;2768;53.540;10.224;2024-03-06T07:00:29;5.33;;;4.83;;
5491;SDS011;2768;53.540;10.224;2024-03-06T07:06:25;9.00;;;5.63;;
5491;SDS011;2768;53.540;10.224;2024-03-06T07:12:19;5.43;;;4.93;;
5491;SDS011;2768;53.540;10.224;2024-03-06T07:18:13;7.40;;;6.40;;
5491;SDS011;2768;53.540;10.224;2024-03-06T07:24:08;6.33;;;5.70;;
5491;SDS011;2768;53.540;10.224;2024-03-06T07:30:02;6.27;;;5.70;;
5491;SDS011;2768;53.540;10.224;2024-03-06T07:35:55;8.67;;;5.20;;
5491;SDS011;2768;53.540;10.224;2024-03-06T07:41:50;5.30;;;4.80;;
5491;SDS011;2768;53.540;10.224;2024-03-06T07:47:43;5.10;;;4.70;;
5491;SDS011;2768;53.540;10.224;2024-03-06T07:53:37;6.33;;;5.10;;
5491;SDS011;2768;53.540;10.224;2024-03-06T07:59:31;5.90;;;5.40;;
5491;SDS011;2768;53.540;10.224;2024-03-06T08:05:25;5.73;;;5.13;;
5491;SDS011;2768;53.540;10.224;2024-03-06T08:11:18;5.67;;;4.87;;
5491;SDS011;2768;53.540;10.224;2024-03-06T08:17:15;5.70;;;5.20;;
5491;SDS011;2768;53.540;10.224;2024-03-06T08:23:08;6.90;;;6.00;;
5491;SDS011;2768;53.540;10.224;2024-03-06T08:29:02;6.00;;;5.40;;
5491;SDS011;2768;53.540;10.224;2024-03-06T08:34:56;6.97;;;6.30;;
5491;SDS011;2768;53.540;10.224;2024-03-06T08:40:49;5.67;;;5.00;;
5491;SDS011;2768;53.540;10.224;2024-03-06T08:46:43;5.33;;;4.80;;
5491;SDS011;2768;53.540;10.224;2024-03-06T08:52:38;8.10;;;4.90;;
5491;SDS011;2768;53.540;10.224;2024-03-06T08:58:32;5.63;;;5.20;;
5491;SDS011;2768;53.540;10.224;2024-03-06T09:04:25;6.87;;;5.83;;
5491;SDS011;2768;53.540;10.224;2024-03-06T09:10:21;6.50;;;5.90;;
5491;SDS011;2768;53.540;10.224;2024-03-06T09:16:14;5.80;;;5.20;;
5491;SDS011;2768;53.540;10.224;2024-03-06T09:22:09;5.33;;;4.93;;
5491;SDS011;2768;53.540;10.224;2024-03-06T09:28:04;6.27;;;5.77;;
5491;SDS011;2768;53.540;10.224;2024-03-06T09:34:00;6.63;;;6.00;;
5491;SDS011;2768;53.540;10.224;2024-03-06T09:39:53;6.80;;;6.10;;
5491;SDS011;2768;53.540;10.224;2024-03-06T09:52:07;8.63;;;6.70;;
5491;SDS011;2768;53.540;10.224;2024-03-06T09:58:01;6.97;;;6.23;;
5491;SDS011;2768;53.540;10.224;2024-03-06T10:03:57;8.83;;;6.60;;
5491;SDS011;2768;53.540;10.224;2024-03-06T10:09:51;7.10;;;6.00;;
5491;SDS011;2768;53.540;10.224;2024-03-06T10:15:54;7.00;;;6.30;;
5491;SDS011;2768;53.540;10.224;2024-03-06T10:21:52;9.23;;;6.83;;
5491;SDS011;2768;53.540;10.224;2024-03-06T10:27:45;6.50;;;5.90;;
5491;SDS011;2768;53.540;10.224;2024-03-06T10:33:39;7.00;;;6.40;;
5491;SDS011;2768;53.540;10.224;2024-03-06T10:39:37;7.70;;;6.80;;
5491;SDS011;2768;53.540;10.224;2024-03-06T10:45:39;6.73;;;6.00;;
5491;SDS011;2768;53.540;10.224;2024-03-06T10:51:37;7.27;;;6.57;;
5491;SDS011;2768;53.540;10.224;2024-03-06T10:57:34;7.67;;;6.93;;
5491;SDS011;2768;53.540;10.224;2024-03-06T11:03:29;9.80;;;5.90;;
5491;SDS011;2768;53.540;10.224;2024-03-06T11:09:23;7.27;;;6.57;;
5491;SDS011;2768;53.540;10.224;2024-03-06T11:15:18;7.60;;;6.70;;
5491;SDS011;2768;53.540;10.224;2024-03-06T11:27:25;7.13;;;6.43;;
5491;SDS011;2768;53.540;10.224;2024-03-06T11:33:21;8.50;;;6.37;;
5491;SDS011;2768;53.540;10.224;2024-03-06T11:39:14;7.23;;;6.53;;
5491;SDS011;2768;53.540;10.224;2024-03-06T11:45:12;7.30;;;6.60;;
5491;SDS011;2768;53.540;10.224;2024-03-06T11:51:10;7.53;;;6.67;;
5491;SDS011;2768;53.540;10.224;2024-03-06T11:57:04;7.53;;;6.70;;
5491;SDS011;2768;53.540;10.224;2024-03-06T12:02:58;6.83;;;6.13;;
5491;SDS011;2768;53.540;10.224;2024-03-06T12:08:54;6.67;;;6.07;;
5491;SDS011;2768;53.540;10.224;2024-03-06T12:14:55;6.23;;;5.63;;
5491;SDS011;2768;53.540;10.224;2024-03-06T12:20:50;7.90;;;6.80;;
5491;SDS011;2768;53.540;10.224;2024-03-06T12:26:46;7.40;;;6.70;;
5491;SDS011;2768;53.540;10.224;2024-03-06T12:32:41;9.60;;;8.60;;
5491;SDS011;2768;53.540;10.224;2024-03-06T12:38:34;8.17;;;7.37;;
5491;SDS011;2768;53.540;10.224;2024-03-06T12:44:29;7.73;;;6.93;;
5491;SDS011;2768;53.540;10.224;2024-03-06T12:50:22;7.77;;;7.00;;
5491;SDS011;2768;53.540;10.224;2024-03-06T12:56:16;7.40;;;6.70;;
5491;SDS011;2768;53.540;10.224;2024-03-06T13:02:12;7.30;;;6.30;;
5491;SDS011;2768;53.540;10.224;2024-03-06T13:08:05;9.63;;;7.60;;
5491;SDS011;2768;53.540;10.224;2024-03-06T13:13:58;6.97;;;6.27;;
5491;SDS011;2768;53.540;10.224;2024-03-06T13:19:54;7.97;;;6.60;;
5491;SDS011;2768;53.540;10.224;2024-03-06T13:25:47;8.00;;;6.80;;
5491;SDS011;2768;53.540;10.224;2024-03-06T13:31:41;10.67;;;6.63;;
5491;SDS011;2768;53.540;10.224;2024-03-06T13:37:36;7.30;;;6.60;;
5491;SDS011;2768;53.540;10.224;2024-03-06T13:43:29;7.50;;;6.70;;
5491;SDS011;2768;53.540;10.224;2024-03-06T13:49:34;6.93;;;6.17;;
5491;SDS011;2768;53.540;10.224;2024-03-06T13:55:30;7.50;;;6.50;;
5491;SDS011;2768;53.540;10.224;2024-03-06T14:01:24;6.57;;;5.80;;
5491;SDS011;2768;53.540;10.224;2024-03-06T14:07:18;6.63;;;5.93;;
5491;SDS011;2768;53.540;10.224;2024-03-06T14:13:12;6.20;;;5.60;;
5491;SDS011;2768;53.540;10.224;2024-03-06T14:19:06;6.00;;;5.50;;
5491;SDS011;2768;53.540;10.224;2024-03-06T14:24:59;8.67;;;5.97;;
5491;SDS011;2768;53.540;10.224;2024-03-06T14:30:54;6.73;;;6.13;;
5491;SDS011;2768;53.540;10.224;2024-03-06T14:36:47;7.63;;;6.93;;
5491;SDS011;2768;53.540;10.224;2024-03-06T14:42:40;7.67;;;5.70;;
5491;SDS011;2768;53.540;10.224;2024-03-06T14:48:36;6.80;;;6.20;;
5491;SDS011;2768;53.540;10.224;2024-03-06T14:54:30;6.07;;;5.50;;
5491;SDS011;2768;53.540;10.224;2024-03-06T15:00:23;7.17;;;5.83;;
5491;SDS011;2768;53.540;10.224;2024-03-06T15:06:18;6.80;;;5.80;;
5491;SDS011;2768;53.540;10.224;2024-03-06T15:12:11;6.10;;;5.50;;
5491;SDS011;2768;53.540;10.224;2024-03-06T15:18:05;5.93;;;5.33;;
5491;SDS011;2768;53.540;10.224;2024-03-06T15:24:02;5.67;;;5.17;;
5491;SDS011;2768;53.540;10.224;2024-03-06T15:29:56;5.67;;;5.17;;
5491;SDS011;2768;53.540;10.224;2024-03-06T15:35:49;5.70;;;5.20;;
5491;SDS011;2768;53.540;10.224;2024-03-06T15:41:44;6.63;;;4.87;;
5491;SDS011;2768;53.540;10.224;2024-03-06T15:47:37;5.03;;;4.63;;
5491;SDS011;2768;53.540;10.224;2024-03-06T15:53:33;5.00;;;4.60;;
5491;SDS011;2768;53.540;10.224;2024-03-06T15:59:28;5.63;;;5.13;;
5491;SDS011;2768;53.540;10.224;2024-03-06T16:05:24;5.17;;;4.67;;
5491;SDS011;2768;53.540;10.224;2024-03-06T16:11:18;5.23;;;4.70;;
5491;SDS011;2768;53.540;10.224;2024-03-06T16:17:12;5.70;;;4.90;;
5491;SDS011;2768;53.540;10.224;2024-03-06T16:23:06;5.23;;;4.83;;
5491;SDS011;2768;53.540;10.224;2024-03-06T16:29:00;7.67;;;5.73;;
5491;SDS011;2768;53.540;10.224;2024-03-06T16:34:55;5.40;;;5.00;;
5491;SDS011;2768;53.540;10.224;2024-03-06T16:40:49;5.53;;;4.97;;
5491;SDS011;2768;53.540;10.224;2024-03-06T16:46:42;5.70;;;5.10;;
5491;SDS011;2768;53.540;10.224;2024-03-06T16:52:37;5.17;;;4.63;;
5491;SDS011;2768;53.540;10.224;2024-03-06T16:58:30;5.50;;;4.90;;
5491;SDS011;2768;53.540;10.224;2024-03-06T17:04:23;5.53;;;5.00;;
5491;SDS011;2768;53.540;10.224;2024-03-06T17:10:18;6.27;;;5.63;;
5491;SDS011;2768;53.540;10.224;2024-03-06T17:16:11;5.47;;;4.93;;
5491;SDS011;2768;53.540;10.224;2024-03-06T17:22:05;5.50;;;4.97;;
5491;SDS011;2768;53.540;10.224;2024-03-06T17:28:00;7.37;;;5.77;;
5491;SDS011;2768;53.540;10.224;2024-03-06T17:33:53;5.43;;;4.93;;
5491;SDS011;2768;53.540;10.224;2024-03-06T17:39:47;6.23;;;5.60;;
5491;SDS011;2768;53.540;10.224;2024-03-06T17:45:41;5.93;;;5.40;;
5491;SDS011;2768;53.540;10.224;2024-03-06T17:51:36;5.23;;;4.73;;
5491;SDS011;2768;53.540;10.224;2024-03-06T17:57:30;5.67;;;5.17;;
5491;SDS011;2768;53.540;10.224;2024-03-06T18:03:25;4.80;;;4.50;;
5491;SDS011;2768;53.540;10.224;2024-03-06T18:09:19;6.03;;;5.10;;
5491;SDS011;2768;53.540;10.224;2024-03-06T18:15:12;5.53;;;5.03;;
5491;SDS011;2768;53.540;10.224;2024-03-06T18:21:08;5.73;;;5.23;;
5491;SDS011;2768;53.540;10.224;2024-03-06T18:27:01;6.07;;;5.47;;
5491;SDS011;2768;53.540;10.224;2024-03-06T18:32:54;6.23;;;5.67;;
5491;SDS011;2768;53.540;10.224;2024-03-06T18:38:49;5.87;;;5.37;;
5491;SDS011;2768;53.540;10.224;2024-03-06T18:44:43;7.23;;;5.87;;
5491;SDS011;2768;53.540;10.224;2024-03-06T18:50:36;6.83;;;6.23;;
5491;SDS011;2768;53.540;10.224;2024-03-06T18:56:31;9.57;;;6.57;;
5491;SDS011;2768;53.540;10.224;2024-03-06T19:02:26;7.20;;;6.50;;
5491;SDS011;2768;53.540;10.224;2024-03-06T19:08:20;7.90;;;7.20;;
5491;SDS011;2768;53.540;10.224;2024-03-06T19:14:14;8.70;;;7.80;;
5491;SDS011;2768;53.540;10.224;2024-03-06T19:20:08;9.50;;;8.50;;
5491;SDS011;2768;53.540;10.224;2024-03-06T19:26:04;10.10;;;9.07;;
5491;SDS011;2768;53.540;10.224;2024-03-06T19:32:00;9.77;;;8.83;;
5491;SDS011;2768;53.540;10.224;2024-03-06T19:37:54;10.30;;;9.30;;
5491;SDS011;2768;53.540;10.224;2024-03-06T19:43:47;9.67;;;8.70;;
5491;SDS011;2768;53.540;10.224;2024-03-06T19:49:42;16.23;;;12.60;;
5491;SDS011;2768;53.540;10.224;2024-03-06T19:55:35;14.30;;;12.10;;
5491;SDS011;2768;53.540;10.224;2024-03-06T20:01:29;13.63;;;10.60;;
5491;SDS011;2768;53.540;10.224;2024-03-06T20:07:24;19.70;;;13.93;;
5491;SDS011;2768;53.540;10.224;2024-03-06T20:13:17;23.00;;;16.47;;
5491;SDS011;2768;53.540;10.224;2024-03-06T20:19:10;19.20;;;14.87;;
5491;SDS011;2768;53.540;10.224;2024-03-06T20:25:06;14.80;;;12.63;;
5491;SDS011;2768;53.540;10.224;2024-03-06T20:31:02;15.00;;;13.40;;
5491;SDS011;2768;53.540;10.224;2024-03-06T20:36:56;17.03;;;15.13;;
5491;SDS011;2768;53.540;10.224;2024-03-06T20:42:51;18.33;;;15.43;;
5491;SDS011;2768;53.540;10.224;2024-03-06T20:48:44;19.33;;;16.10;;
5491;SDS011;2768;53.540;10.224;2024-03-06T20:54:40;19.20;;;16.40;;
5491;SDS011;2768;53.540;10.224;2024-03-06T21:00:35;22.33;;;18.13;;
5491;SDS011;2768;53.540;10.224;2024-03-06T21:06:28;18.40;;;16.50;;
5491;SDS011;2768;53.540;10.224;2024-03-06T21:12:21;20.27;;;17.67;;
5491;SDS011;2768;53.540;10.224;2024-03-06T21:18:16;20.90;;;16.93;;
5491;SDS011;2768;53.540;10.224;2024-03-06T21:24:09;29.90;;;20.60;;
5491;SDS011;2768;53.540;10.224;2024-03-06T21:30:04;24.90;;;20.20;;
5491;SDS011;2768;53.540;10.224;2024-03-06T21:36:00;23.13;;;19.27;;
5491;SDS011;2768;53.540;10.224;2024-03-06T21:41:53;23.10;;;19.80;;
5491;SDS011;2768;53.540;10.224;2024-03-06T21:47:46;26.00;;;20.60;;
5491;SDS011;2768;53.540;10.224;2024-03-06T21:53:41;25.37;;;20.63;;
5491;SDS011;2768;53.540;10.224;2024-03-06T21:59:34;28.03;;;21.93;;
5491;SDS011;2768;53.540;10.224;2024-03-06T22:05:27;28.00;;;20.77;;
5491;SDS011;2768;53.540;10.224;2024-03-06T22:11:23;25.73;;;21.20;;
5491;SDS011;2768;53.540;10.224;2024-03-06T22:17:17;24.03;;;19.90;;
5491;SDS011;2768;53.540;10.224;2024-03-06T22:23:10;25.40;;;19.47;;
5491;SDS011;2768;53.540;10.224;2024-03-06T22:29:05;25.07;;;20.10;;
5491;SDS011;2768;53.540;10.224;2024-03-06T22:35:02;27.57;;;20.13;;
5491;SDS011;2768;53.540;10.224;2024-03-06T22:40:56;26.47;;;19.70;;
5491;SDS011;2768;53.540;10.224;2024-03-06T22:46:52;29.90;;;20.60;;
5491;SDS011;2768;53.540;10.224;2024-03-06T22:52:48;27.20;;;20.07;;
5491;SDS011;2768;53.540;10.224;2024-03-06T22:58:42;24.93;;;19.77;;
5491;SDS011;2768;53.540;10.224;2024-03-06T23:04:38;28.67;;;20.73;;
5491;SDS011;2768;53.540;10.224;2024-03-06T23:10:32;27.07;;;19.77;;
5491;SDS011;2768;53.540;10.224;2024-03-06T23:16:25;26.07;;;20.07;;
5491;SDS011;2768;53.540;10.224;2024-03-06T23:22:20;28.40;;;19.80;;
5491;SDS011;2768;53.540;10.224;2024-03-06T23:28:13;28.17;;;21.20;;
5491;SDS011;2768;53.540;10.224;2024-03-06T23:34:06;27.43;;;18.97;;
5491;SDS011;2768;53.540;10.224;2024-03-06T23:40:02;25.10;;;18.10;;
5491;SDS011;2768;53.540;10.224;2024-03-06T23:45:58;23.20;;;16.33;;
5491;SDS011;2768;53.540;10.224;2024-03-06T23:51:51;19.87;;;16.00;;
5491;SDS011;2768;53.540;10.224;2024-03-06T23:57:48;21.70;;;16.53;;
